| Date | Time | Temp. (oF) | Dew Point (oF) | Rel. Hum. (%) | Press. (in.) | Wind Dir. | Wind Speed (mph) | Hourly Rainfall (in.) |
|
|---|---|---|---|---|---|---|---|---|---|
| 1 | 12/03 | 00:00 | 29 | 28 | 97 | 30.18 | SE | 1 | 0.00 |
| 2 | 12/02 | 23:00 | 31 | 30 | 97 | 30.21 | SE | 0 | 0.00 |
| 3 | 12/02 | 22:00 | 32 | 30 | 95 | 30.19 | SE | 1 | 0.00 |
| 4 | 12/02 | 21:00 | 34 | 30 | 88 | 30.19 | SE | 0 | 0.00 |
| 5 | 12/02 | 20:00 | 36 | 31 | 83 | 30.19 | SE | 1 | 0.00 |
| 6 | 12/02 | 19:00 | 39 | 31 | 75 | 30.19 | SE | 1 | 0.00 |
| 7 | 12/02 | 18:00 | 41 | 31 | 70 | 30.19 | ESE | 2 | 0.00 |
| 8 | 12/02 | 17:00 | 43 | 32 | 66 | 30.18 | ESE | 4 | 0.00 |
| 9 | 12/02 | 16:00 | 46 | 32 | 58 | 30.18 | SSE | 1 | 0.00 |
| 10 | 12/02 | 15:00 | 48 | 32 | 55 | 30.18 | S | 2 | 0.00 |
| 11 | 12/02 | 14:00 | 48 | 32 | 54 | 30.17 | SSE | 3 | 0.00 |
| 12 | 12/02 | 13:00 | 48 | 35 | 62 | 30.19 | S | 2 | 0.00 |
| 13 | 12/02 | 12:00 | 45 | 35 | 70 | 30.22 | SSE | 3 | 0.00 |
| 14 | 12/02 | 11:00 | 42 | 33 | 72 | 30.25 | ENE | 3 | 0.00 |
| 15 | 12/02 | 10:00 | 39 | 33 | 80 | 30.27 | SE | 4 | 0.00 |
| 16 | 12/02 | 09:00 | 30 | 29 | 97 | 30.28 | ENE | 1 | 0.00 |
| 17 | 12/02 | 08:00 | 25 | 24 | 100 | 30.29 | NE | 2 | 0.00 |
| 18 | 12/02 | 07:00 | 24 | 23 | 100 | 30.29 | NE | 1 | 0.00 |
| 19 | 12/02 | 06:00 | 25 | 24 | 99 | 30.28 | NE | 0 | 0.00 |
| 20 | 12/02 | 05:00 | 25 | 24 | 100 | 30.27 | NE | 2 | 0.00 |
| 21 | 12/02 | 04:00 | 25 | 24 | 100 | 30.28 | NE | 1 | 0.00 |
| 22 | 12/02 | 03:00 | 26 | 26 | 100 | 30.29 | NE | 1 | 0.00 |
| 23 | 12/02 | 02:00 | 27 | 26 | 99 | 30.29 | NE | 0 | 0.00 |
| 24 | 12/02 | 01:00 | 27 | 26 | 99 | 30.26 | NE | 1 | 0.00 |